Time;durP1;ratioP1;P1;durP2;ratioP2;P2;SDS_P1;SDS_P2;PMS_P1;PMS_P2;Temp;Humidity;BMP_temperature;BMP_pressure;BME280_temperature;BME280_humidity;BME280_pressure;Samples;Min_cycle;Max_cycle;Signal;HPM_P1;HPM_P2
2023/04/11 00:00:57;;;;;;;27.30;5.80;;;;;;;8.15;100.00;100891.31;4955241;28;20020;-75
2023/04/11 00:03:22;;;;;;;24.00;6.00;;;;;;;8.13;100.00;100890.47;4955952;28;20129;-74
2023/04/11 00:05:48;;;;;;;27.50;6.40;;;;;;;8.04;100.00;100882.78;4955821;28;20491;-74
2023/04/11 00:08:14;;;;;;;32.20;6.65;;;;;;;8.06;100.00;100893.16;4955295;28;20034;-75
2023/04/11 00:10:39;;;;;;;24.90;6.60;;;;;;;8.00;100.00;100883.69;4956112;28;20098;-75
2023/04/11 00:13:06;;;;;;;33.90;7.00;;;;;;;7.97;100.00;100896.72;4955507;28;20102;-75
2023/04/11 00:15:32;;;;;;;25.23;5.68;;;;;;;7.80;100.00;100880.50;4956154;28;20140;-75
2023/04/11 00:17:58;;;;;;;29.48;6.30;;;;;;;7.79;100.00;100900.41;4955726;28;20034;-74
2023/04/11 00:20:23;;;;;;;31.73;6.70;;;;;;;7.72;100.00;100903.94;4955034;28;20023;-74
2023/04/11 00:22:52;;;;;;;27.13;6.32;;;;;;;7.64;100.00;100898.81;4955892;28;20436;-74
2023/04/11 00:25:18;;;;;;;32.05;7.45;;;;;;;7.55;100.00;100896.31;4955671;28;20019;-75
2023/04/11 00:27:43;;;;;;;33.88;7.18;;;;;;;7.46;100.00;100886.03;4955574;28;20519;-75
2023/04/11 00:30:09;;;;;;;24.10;6.55;;;;;;;7.42;100.00;100895.59;4955507;28;20059;-75
2023/04/11 00:32:34;;;;;;;29.13;7.40;;;;;;;7.36;100.00;100892.19;4956072;28;20459;-74
2023/04/11 00:35:00;;;;;;;28.05;6.90;;;;;;;7.27;100.00;100896.59;4954781;28;20415;-74
2023/04/11 00:37:25;;;;;;;27.95;7.72;;;;;;;7.24;100.00;100898.34;4955178;28;20038;-74
2023/04/11 00:39:54;;;;;;;32.25;6.68;;;;;;;7.20;100.00;100905.28;4955167;28;20042;-75
2023/04/11 00:42:20;;;;;;;29.90;7.10;;;;;;;7.19;100.00;100908.78;4954201;28;20049;-74
2023/04/11 00:44:45;;;;;;;30.77;6.75;;;;;;;7.20;100.00;100904.44;4954102;28;20482;-74
2023/04/11 00:47:11;;;;;;;29.58;7.75;;;;;;;7.19;100.00;100900.09;4954764;28;20038;-74
2023/04/11 00:49:37;;;;;;;27.83;6.82;;;;;;;7.21;100.00;100900.97;4954903;28;20027;-74
2023/04/11 00:52:04;;;;;;;27.10;6.90;;;;;;;7.28;100.00;100897.44;4954507;28;20074;-74
2023/04/11 00:54:30;;;;;;;31.15;7.45;;;;;;;7.36;100.00;100910.34;4954984;28;20086;-75
2023/04/11 00:57:00;;;;;;;30.65;7.90;;;;;;;7.41;100.00;100909.41;4954160;28;20043;-74
2023/04/11 00:59:30;;;;;;;32.58;7.68;;;;;;;7.40;100.00;100897.34;4953881;28;20046;-74
2023/04/11 01:01:57;;;;;;;37.13;7.22;;;;;;;7.41;100.00;100903.38;4954528;28;20125;-75
2023/04/11 01:04:23;;;;;;;35.88;6.93;;;;;;;7.41;100.00;100899.03;4953852;28;20077;-75
2023/04/11 01:06:51;;;;;;;30.40;6.25;;;;;;;7.43;100.00;100897.31;4954670;28;20074;-75
2023/04/11 01:09:19;;;;;;;31.05;6.90;;;;;;;7.38;100.00;100898.22;4953817;28;20033;-75
2023/04/11 01:11:46;;;;;;;35.70;6.60;;;;;;;7.34;100.00;100901.72;4955010;28;20102;-75
2023/04/11 01:14:11;;;;;;;27.10;6.82;;;;;;;7.34;100.00;100904.31;4954283;28;20463;-75
2023/04/11 01:16:37;;;;;;;24.60;6.82;;;;;;;7.33;100.00;100911.22;4954453;28;20046;-75
2023/04/11 01:19:02;;;;;;;28.48;6.78;;;;;;;7.25;100.00;100893.13;4955084;28;20027;-75
2023/04/11 01:21:28;;;;;;;38.50;6.72;;;;;;;7.23;100.00;100896.63;4954918;28;20050;-75
2023/04/11 01:23:53;;;;;;;33.90;6.82;;;;;;;7.18;100.00;100906.16;4952919;28;20026;-75
2023/04/11 01:26:18;;;;;;;30.50;7.18;;;;;;;7.15;100.00;100899.28;4954416;28;20505;-75
2023/04/11 01:28:44;;;;;;;24.88;6.03;;;;;;;7.07;100.00;100910.59;4954853;28;20035;-75
2023/04/11 01:31:09;;;;;;;30.05;6.57;;;;;;;7.04;100.00;100893.34;4944131;28;20019;-75
2023/04/11 01:33:35;;;;;;;35.88;7.95;;;;;;;6.91;100.00;100877.00;4954704;28;20054;-75
2023/04/11 01:36:00;;;;;;;26.20;5.80;;;;;;;6.97;100.00;100899.44;4954570;28;20459;-74
2023/04/11 01:38:26;;;;;;;34.53;6.68;;;;;;;6.93;100.00;100900.31;4954090;28;20118;-75
2023/04/11 01:40:52;;;;;;;33.08;6.55;;;;;;;6.94;100.00;100912.41;4954428;28;20475;-75
2023/04/11 01:43:18;;;;;;;38.47;6.65;;;;;;;6.87;100.00;100905.56;4954618;28;20039;-75
2023/04/11 01:45:44;;;;;;;37.80;6.15;;;;;;;6.83;100.00;100906.44;4954291;28;20034;-75
2023/04/11 01:48:09;;;;;;;35.50;6.50;;;;;;;6.87;100.00;100923.72;4953996;28;20028;-75
2023/04/11 01:50:35;;;;;;;25.40;6.22;;;;;;;6.84;100.00;100915.97;4954675;28;20027;-75
2023/04/11 01:53:00;;;;;;;28.17;6.60;;;;;;;6.87;100.00;100919.38;4954080;28;20066;-75
2023/04/11 01:55:25;;;;;;;31.95;7.20;;;;;;;6.82;100.00;100923.72;4953733;28;20035;-75
2023/04/11 01:57:51;;;;;;;31.50;6.75;;;;;;;6.85;100.00;100938.41;4954332;28;20015;-75
2023/04/11 02:00:16;;;;;;;35.67;6.78;;;;;;;6.78;100.00;100935.84;4953501;28;20043;-75
2023/04/11 02:02:42;;;;;;;36.80;7.32;;;;;;;6.80;100.00;100941.00;4953896;28;20032;-75
2023/04/11 02:05:07;;;;;;;40.92;7.03;;;;;;;6.75;100.00;100932.41;4953852;28;20042;-75
2023/04/11 02:07:33;;;;;;;29.30;6.90;;;;;;;6.71;100.00;100922.94;4952988;28;20035;-75
2023/04/11 02:09:59;;;;;;;33.95;7.15;;;;;;;6.80;100.00;100946.19;4953715;28;20027;-75
2023/04/11 02:12:24;;;;;;;33.83;7.07;;;;;;;6.84;100.00;100940.13;4953545;28;20024;-75
2023/04/11 02:14:50;;;;;;;26.83;6.60;;;;;;;6.97;100.00;100953.88;4952217;28;20032;-75
2023/04/11 02:17:17;;;;;;;33.83;7.32;;;;;;;6.96;100.00;100942.63;4953675;28;20034;-75
2023/04/11 02:19:46;;;;;;;36.17;6.78;;;;;;;6.99;100.00;100944.34;4949530;28;20487;-75
2023/04/11 02:22:13;;;;;;;32.80;6.63;;;;;;;7.01;100.00;100947.78;4953770;28;20042;-75
2023/04/11 02:24:38;;;;;;;27.73;6.40;;;;;;;7.03;100.00;100948.66;4958134;28;20024;-74
2023/04/11 02:27:03;;;;;;;23.55;7.05;;;;;;;7.09;100.00;100956.34;4955578;28;20034;-75
2023/04/11 02:29:29;;;;;;;31.90;7.32;;;;;;;7.13;100.00;100955.47;4957601;28;20416;-74
2023/04/11 02:31:54;;;;;;;27.58;6.53;;;;;;;7.11;100.00;100954.63;4957116;28;20023;-75
2023/04/11 02:34:21;;;;;;;34.33;6.70;;;;;;;7.17;100.00;100957.19;4956836;28;20063;-75
2023/04/11 02:36:47;;;;;;;33.95;7.72;;;;;;;7.14;100.00;100946.81;4956646;28;20035;-75
2023/04/11 02:39:13;;;;;;;29.15;6.05;;;;;;;7.17;100.00;100956.31;4957081;28;20026;-75
2023/04/11 02:41:39;;;;;;;31.80;6.75;;;;;;;7.21;100.00;100953.69;4955518;28;20031;-74
2023/04/11 02:44:05;;;;;;;30.02;6.70;;;;;;;7.23;100.00;100951.94;4956763;28;20034;-74
2023/04/11 02:46:30;;;;;;;33.97;6.47;;;;;;;7.21;100.00;100958.00;4956939;28;20403;-75
2023/04/11 02:48:55;;;;;;;28.63;5.57;;;;;;;7.26;100.00;100967.47;4955838;28;20098;-75
2023/04/11 02:51:21;;;;;;;24.02;5.93;;;;;;;7.16;100.00;100947.69;4956889;28;20031;-75
2023/04/11 02:53:46;;;;;;;26.33;5.18;;;;;;;7.20;100.00;100949.38;4957559;28;20021;-75
2023/04/11 02:56:12;;;;;;;31.33;5.68;;;;;;;7.21;100.00;100953.69;4954888;28;20106;-75
2023/04/11 02:58:40;;;;;;;27.05;5.30;;;;;;;7.21;100.00;100969.22;4957294;28;20451;-75
2023/04/11 03:01:06;;;;;;;24.10;4.57;;;;;;;7.21;100.00;100976.16;4955120;28;20027;-75
2023/04/11 03:03:32;;;;;;;24.58;4.72;;;;;;;7.17;100.00;100971.88;4957329;28;20039;-75
2023/04/11 03:05:57;;;;;;;20.00;4.88;;;;;;;7.14;100.00;100964.97;4955451;28;20099;-75
2023/04/11 03:08:23;;;;;;;17.63;3.53;;;;;;;7.07;100.00;100971.06;4956024;28;20475;-75
2023/04/11 03:10:48;;;;;;;18.83;4.53;;;;;;;7.03;100.00;100966.78;4956177;28;20031;-75
2023/04/11 03:13:15;;;;;;;25.08;4.30;;;;;;;6.98;100.00;100973.72;4957068;28;20058;-75
2023/04/11 03:15:40;;;;;;;19.02;3.88;;;;;;;6.86;100.00;100961.69;4956159;28;20110;-75
2023/04/11 03:18:05;;;;;;;22.85;4.22;;;;;;;6.84;100.00;100981.59;4956536;28;20028;-75
2023/04/11 03:20:31;;;;;;;22.00;4.75;;;;;;;6.78;100.00;100972.13;4956550;28;20039;-75
2023/04/11 03:22:56;;;;;;;20.02;4.43;;;;;;;6.81;100.00;100984.19;4955788;28;20082;-75
2023/04/11 03:25:21;;;;;;;17.65;3.58;;;;;;;6.76;100.00;100991.97;4955580;28;20118;-75
2023/04/11 03:27:47;;;;;;;21.23;3.63;;;;;;;6.72;100.00;101002.38;4955899;28;20059;-75
2023/04/11 03:30:12;;;;;;;19.73;3.85;;;;;;;6.72;100.00;100995.47;4955258;28;20534;-74
2023/04/11 03:32:38;;;;;;;21.05;3.50;;;;;;;6.72;100.00;100992.03;4956743;28;20031;-75
2023/04/11 03:35:03;;;;;;;20.45;3.70;;;;;;;6.82;100.00;101005.78;4956266;28;20047;-74
2023/04/11 03:37:29;;;;;;;12.25;3.10;;;;;;;6.84;100.00;100998.88;4956434;28;20462;-75
2023/04/11 03:39:54;;;;;;;15.68;3.60;;;;;;;6.82;100.00;101006.66;4956418;28;20023;-74
2023/04/11 03:42:19;;;;;;;17.48;3.33;;;;;;;6.84;100.00;101009.25;4956556;28;20567;-75
2023/04/11 03:44:45;;;;;;;18.85;3.83;;;;;;;6.75;100.00;101004.97;4956148;28;20412;-74
2023/04/11 03:47:10;;;;;;;16.75;3.33;;;;;;;6.74;100.00;101008.44;4956267;28;20027;-74
2023/04/11 03:49:35;;;;;;;17.77;3.28;;;;;;;6.69;100.00;101010.16;4956838;28;20479;-74
2023/04/11 03:52:01;;;;;;;19.92;3.28;;;;;;;6.70;100.00;101007.59;4955844;28;20380;-74
2023/04/11 03:54:26;;;;;;;15.95;3.15;;;;;;;6.65;100.00;101006.75;4956029;28;20023;-74
2023/04/11 03:56:51;;;;;;;20.73;3.03;;;;;;;6.67;100.00;101017.06;4956220;28;20023;-74
2023/04/11 03:59:16;;;;;;;15.30;4.15;;;;;;;6.64;100.00;101012.78;4955535;28;20118;-74
2023/04/11 04:01:42;;;;;;;20.05;3.42;;;;;;;6.66;100.00;101021.41;4956228;28;20027;-74
2023/04/11 04:04:07;;;;;;;20.08;3.28;;;;;;;6.64;100.00;101017.09;4955910;28;20067;-75
2023/04/11 04:06:32;;;;;;;23.17;4.32;;;;;;;6.60;100.00;101021.44;4955877;28;20484;-74
2023/04/11 04:08:58;;;;;;;15.90;3.03;;;;;;;6.60;100.00;101023.16;4956168;28;20055;-74
2023/04/11 04:11:24;;;;;;;19.75;4.18;;;;;;;6.57;100.00;101021.44;4956020;28;20081;-74
2023/04/11 04:13:49;;;;;;;16.92;4.10;;;;;;;6.53;100.00;101014.56;4955779;28;20452;-75
2023/04/11 04:16:16;;;;;;;16.92;3.78;;;;;;;6.51;100.00;101008.53;4947406;28;20546;-75
2023/04/11 04:18:41;;;;;;;18.52;3.50;;;;;;;6.53;100.00;101017.16;4956063;28;20051;-75
2023/04/11 04:21:07;;;;;;;23.35;4.95;;;;;;;6.44;100.00;101019.75;4955308;28;20050;-74
2023/04/11 04:23:34;;;;;;;20.65;4.60;;;;;;;6.44;100.00;101027.53;4955900;28;20086;-74
2023/04/11 04:26:01;;;;;;;21.15;4.35;;;;;;;6.32;100.00;101026.72;4955913;28;20384;-74
2023/04/11 04:28:27;;;;;;;18.90;4.50;;;;;;;6.30;100.00;101032.75;4954988;28;20055;-74
2023/04/11 04:30:56;;;;;;;26.13;5.28;;;;;;;6.21;100.00;101036.25;4955605;28;20036;-74
2023/04/11 04:33:23;;;;;;;28.85;5.13;;;;;;;6.19;100.00;101043.16;4952339;28;20592;-74
2023/04/11 04:35:56;;;;;;;24.13;5.75;;;;;;;6.16;100.00;101050.94;4955730;28;20042;-74
2023/04/11 04:38:22;;;;;;;;;;;;;;;6.13;100.00;101063.00;4955799;28;20086;-74
2023/04/11 04:40:48;;;;;;;29.45;5.97;;;;;;;6.14;100.00;101055.22;4950331;28;19914;-74
2023/04/11 04:43:17;;;;;;;25.80;5.22;;;;;;;6.12;100.00;101069.94;4955212;28;20054;-75
2023/04/11 04:45:43;;;;;;;19.42;4.50;;;;;;;6.07;100.00;101066.47;4955225;28;20094;-75
2023/04/11 04:48:09;;;;;;;23.88;4.55;;;;;;;6.13;100.00;101070.78;4954820;28;20039;-74
2023/04/11 04:50:34;;;;;;;22.05;4.95;;;;;;;6.07;100.00;101069.91;4955457;28;20070;-74
2023/04/11 04:52:59;;;;;;;21.30;5.03;;;;;;;6.02;100.00;101068.22;4955606;28;20063;-75
2023/04/11 04:55:27;;;;;;;23.70;5.05;;;;;;;5.92;100.00;101061.25;4954613;28;20082;-75
2023/04/11 04:57:53;;;;;;;21.13;4.45;;;;;;;6.01;100.00;101076.81;4955220;28;20110;-74
2023/04/11 05:00:18;;;;;;;23.90;5.05;;;;;;;6.01;100.00;101085.44;4955112;28;20062;-75
2023/04/11 05:02:44;;;;;;;23.95;4.30;;;;;;;5.99;100.00;101084.59;4954961;28;20026;-75
2023/04/11 05:05:10;;;;;;;15.40;3.97;;;;;;;5.89;100.00;101076.81;4954276;28;20130;-75
2023/04/11 05:07:36;;;;;;;24.27;4.07;;;;;;;5.98;100.00;101102.69;4955466;28;20027;-75
2023/04/11 05:10:01;;;;;;;21.17;3.50;;;;;;;5.96;100.00;101104.44;4954507;28;20023;-74
2023/04/11 05:12:26;;;;;;;16.90;3.53;;;;;;;5.91;100.00;101094.03;4954460;28;20042;-75
2023/04/11 05:14:52;;;;;;;19.65;4.97;;;;;;;5.90;100.00;101094.06;4954692;28;20039;-74
2023/04/11 05:17:17;;;;;;;19.55;3.53;;;;;;;5.90;100.00;101110.44;4947781;28;20063;-74
2023/04/11 05:19:43;;;;;;;14.45;3.47;;;;;;;5.93;100.00;101109.63;4954038;28;20037;-75
2023/04/11 05:22:08;;;;;;;21.55;3.80;;;;;;;5.89;100.00;101113.06;4953969;28;20070;-74
2023/04/11 05:24:33;;;;;;;18.40;2.95;;;;;;;5.85;100.00;101107.88;4954167;28;20391;-75
2023/04/11 05:26:59;;;;;;;19.52;3.55;;;;;;;5.92;100.00;101110.44;4954237;28;20059;-74
2023/04/11 05:29:24;;;;;;;21.63;4.65;;;;;;;5.88;100.00;101106.97;4954401;28;20019;-74
2023/04/11 05:31:50;;;;;;;14.25;2.85;;;;;;;5.93;100.00;101119.97;4952547;28;20034;-74
2023/04/11 05:34:15;;;;;;;11.00;3.40;;;;;;;5.96;100.00;101120.84;4953349;28;20033;-74
2023/04/11 05:36:41;;;;;;;20.38;2.92;;;;;;;6.01;100.00;101128.59;4953951;28;20089;-75
2023/04/11 05:39:06;;;;;;;11.90;3.00;;;;;;;5.99;100.00;101122.56;4953487;28;20027;-74
2023/04/11 05:41:31;;;;;;;12.90;3.45;;;;;;;5.96;100.00;101132.91;4954393;28;20118;-74
2023/04/11 05:43:57;;;;;;;15.60;3.10;;;;;;;5.99;100.00;101143.28;4954050;28;20023;-75
2023/04/11 05:46:22;;;;;;;11.38;2.47;;;;;;;6.00;100.00;101143.25;4954225;28;20046;-74
2023/04/11 05:48:47;;;;;;;16.95;3.75;;;;;;;6.03;100.00;101134.63;4954702;28;20027;-74
2023/04/11 05:51:12;;;;;;;19.52;3.28;;;;;;;6.06;100.00;101145.00;4952569;28;20508;-74
2023/04/11 05:53:38;;;;;;;12.73;2.78;;;;;;;6.04;100.00;101141.53;4952267;28;20464;-74
2023/04/11 05:56:03;;;;;;;17.13;2.78;;;;;;;6.05;100.00;101140.69;4950571;28;20035;-74
2023/04/11 05:58:29;;;;;;;15.82;3.22;;;;;;;6.15;100.00;101157.03;4953494;28;20038;-75
2023/04/11 06:00:56;;;;;;;12.88;2.85;;;;;;;6.22;100.00;101157.06;4953000;28;20479;-74
2023/04/11 06:03:22;;;;;;;13.70;2.95;;;;;;;6.26;100.00;101156.19;4954186;28;20030;-75
2023/04/11 06:05:47;;;;;;;18.08;3.95;;;;;;;6.26;100.00;101155.34;4953400;28;20044;-75
2023/04/11 06:08:12;;;;;;;23.65;3.60;;;;;;;6.28;100.00;101153.63;4954138;28;20027;-74
2023/04/11 06:10:38;;;;;;;19.25;4.07;;;;;;;6.27;100.00;101157.06;4952684;28;20023;-74
2023/04/11 06:13:03;;;;;;;15.23;3.78;;;;;;;6.35;100.00;101160.50;4953157;28;20086;-75
2023/04/11 06:15:29;;;;;;;21.17;4.45;;;;;;;6.45;100.00;101169.13;4954004;28;20368;-74
2023/04/11 06:17:54;;;;;;;16.30;3.70;;;;;;;6.48;100.00;101162.22;4952689;28;20098;-74
2023/04/11 06:20:23;;;;;;;20.30;4.43;;;;;;;6.53;100.00;101159.59;4953627;28;20384;-74
2023/04/11 06:22:50;;;;;;;19.17;4.03;;;;;;;6.63;100.00;101171.66;4954126;28;20019;-74
2023/04/11 06:25:16;;;;;;;18.92;3.88;;;;;;;6.72;100.00;101175.97;4953767;28;20039;-74
2023/04/11 06:27:41;;;;;;;19.38;3.92;;;;;;;6.79;100.00;101183.72;4953824;28;20027;-74
2023/04/11 06:30:08;;;;;;;17.60;3.70;;;;;;;6.83;100.00;101170.75;4952688;28;20431;-74
2023/04/11 06:32:33;;;;;;;20.83;4.22;;;;;;;6.89;100.00;101175.94;4954227;28;20031;-74
2023/04/11 06:34:58;;;;;;;18.15;4.15;;;;;;;6.96;100.00;101190.59;4953108;28;20468;-74
2023/04/11 06:37:24;;;;;;;19.15;3.67;;;;;;;7.02;100.00;101182.81;4953792;28;20031;-75
2023/04/11 06:39:49;;;;;;;23.08;3.95;;;;;;;7.04;100.00;101181.94;4950091;28;20127;-74
2023/04/11 06:42:15;;;;;;;15.82;3.83;;;;;;;7.12;100.00;101199.19;4951595;28;20094;-74
2023/04/11 06:44:40;;;;;;;18.17;3.85;;;;;;;7.16;100.00;101196.59;4954356;28;20035;-74
2023/04/11 06:47:05;;;;;;;19.85;3.97;;;;;;;7.12;100.00;101192.28;4953006;28;20079;-74
2023/04/11 06:49:31;;;;;;;17.70;3.75;;;;;;;7.23;100.00;101200.88;4953607;28;20032;-75
2023/04/11 06:51:58;;;;;;;18.88;4.53;;;;;;;7.27;100.00;101206.91;4953782;28;20510;-74
2023/04/11 06:54:23;;;;;;;18.00;4.57;;;;;;;7.28;100.00;101204.31;4952630;28;20035;-74
2023/04/11 06:56:52;;;;;;;17.65;4.40;;;;;;;7.40;100.00;101212.91;4953903;28;20027;-74
2023/04/11 06:59:20;;;;;;;21.42;5.55;;;;;;;7.58;100.00;101204.19;4940478;28;20027;-74
2023/04/11 07:01:46;;;;;;;21.98;4.38;;;;;;;7.70;100.00;101217.09;4953569;28;20027;-74
2023/04/11 07:04:11;;;;;;;23.20;4.57;;;;;;;7.70;100.00;101207.56;4955625;28;20061;-75
2023/04/11 07:06:37;;;;;;;17.10;4.65;;;;;;;7.72;100.00;101213.63;4972826;28;20109;-74
2023/04/11 07:09:03;;;;;;;22.40;5.25;;;;;;;7.69;100.00;101218.81;4973892;28;20031;-74
2023/04/11 07:11:29;;;;;;;22.05;4.50;;;;;;;7.80;100.00;101203.19;4975730;28;20035;-74
2023/04/11 07:13:55;;;;;;;21.83;4.13;;;;;;;8.09;100.00;101222.91;4976594;28;20058;-74
2023/04/11 07:16:21;;;;;;;18.80;4.32;;;;;;;8.01;100.00;101212.56;4975530;28;20394;-74
2023/04/11 07:18:47;;;;;;;22.05;5.40;;;;;;;8.04;100.00;101212.53;4975963;28;20087;-75
2023/04/11 07:21:14;;;;;;;18.15;4.80;;;;;;;8.02;100.00;101211.69;4974199;28;20034;-75
2023/04/11 07:23:40;;;;;;;18.75;4.60;;;;;;;8.07;100.00;101227.22;4975759;28;20416;-75
2023/04/11 07:26:10;;;;;;;23.58;4.95;;;;;;;8.12;100.00;101226.34;4975748;28;20062;-76
2023/04/11 07:28:36;;;;;;;20.23;5.03;;;;;;;8.13;100.00;101237.59;4974054;28;20098;-76
2023/04/11 07:31:03;;;;;;;18.30;3.70;;;;;;;8.23;100.00;101230.59;4975395;28;20026;-75
2023/04/11 07:33:28;;;;;;;19.92;4.38;;;;;;;8.40;100.00;101237.41;4976401;28;20027;-75
2023/04/11 07:35:54;;;;;;;13.82;4.30;;;;;;;8.57;100.00;101250.25;4975930;28;20031;-76
2023/04/11 07:38:26;;;;;;;23.40;4.38;;;;;;;8.78;100.00;101253.53;4974572;28;20043;-75
2023/04/11 07:40:52;;;;;;;16.52;4.78;;;;;;;8.75;100.00;101258.75;4976177;28;20501;-75
2023/04/11 07:43:17;;;;;;;16.50;4.55;;;;;;;8.86;100.00;101251.72;4975035;28;20479;-75
2023/04/11 07:45:42;;;;;;;16.27;4.63;;;;;;;8.83;100.00;101264.78;4976135;28;20039;-75
2023/04/11 07:48:07;;;;;;;16.90;3.58;;;;;;;8.72;100.00;101251.00;4975745;28;20085;-75
2023/04/11 07:50:33;;;;;;;16.60;4.35;;;;;;;8.78;100.00;101253.53;4974674;28;20359;-76
2023/04/11 07:52:58;;;;;;;15.88;4.03;;;;;;;8.80;100.00;101244.84;4974961;28;20030;-75
2023/04/11 07:55:23;;;;;;;14.23;3.60;;;;;;;8.78;100.00;101258.75;4975705;28;20544;-75
2023/04/11 07:57:49;;;;;;;17.10;3.70;;;;;;;8.70;100.00;101264.03;4975686;28;20035;-76
2023/04/11 08:00:19;;;;;;;12.95;3.63;;;;;;;8.72;100.00;101258.78;4975119;28;20022;-75
2023/04/11 08:02:44;;;;;;;16.40;3.85;;;;;;;8.86;100.00;101257.81;4975748;28;20529;-76
2023/04/11 08:05:10;;;;;;;12.52;4.05;;;;;;;9.04;100.00;101259.34;4962062;28;20044;-75
2023/04/11 08:07:35;;;;;;;15.73;3.10;;;;;;;8.99;99.98;101257.66;4955337;28;20023;-76
2023/04/11 08:10:00;;;;;;;10.20;3.20;;;;;;;9.11;96.76;101268.78;4954817;28;20023;-75
2023/04/11 08:12:25;;;;;;;11.82;3.30;;;;;;;9.03;96.83;101251.56;4953810;28;20074;-75
2023/04/11 08:14:51;;;;;;;13.48;3.30;;;;;;;9.28;99.42;101263.41;4955962;28;20031;-75
2023/04/11 08:17:16;;;;;;;13.15;2.90;;;;;;;9.42;95.55;101264.97;4955806;28;20035;-75
2023/04/11 08:19:41;;;;;;;11.40;2.92;;;;;;;9.44;91.32;101281.44;4954091;28;20387;-75
2023/04/11 08:22:06;;;;;;;14.55;3.78;;;;;;;9.54;91.63;101276.09;4955469;28;20039;-75
2023/04/11 08:24:32;;;;;;;11.30;2.83;;;;;;;9.50;89.48;101276.19;4955821;28;20023;-75
2023/04/11 08:26:57;;;;;;;13.85;2.80;;;;;;;9.50;91.55;101281.38;4952639;28;20023;-75
2023/04/11 08:29:22;;;;;;;11.43;2.60;;;;;;;9.54;92.34;101304.75;4955321;28;20048;-75
2023/04/11 08:31:48;;;;;;;9.38;2.53;;;;;;;9.65;90.22;101285.56;4954242;28;20467;-75
2023/04/11 08:34:14;;;;;;;6.88;2.28;;;;;;;9.69;81.71;101279.41;4954575;28;20487;-77
2023/04/11 08:36:40;;;;;;;7.38;2.95;;;;;;;9.82;85.98;101289.66;4955520;28;20038;-74
2023/04/11 08:39:05;;;;;;;13.50;2.95;;;;;;;9.97;83.15;101298.13;4937309;29;20056;-75
2023/04/11 08:41:31;;;;;;;12.52;3.00;;;;;;;9.84;84.44;101284.41;4955055;28;20023;-75
2023/04/11 08:43:56;;;;;;;12.15;2.90;;;;;;;9.87;83.80;101297.38;4954412;28;20387;-75
2023/04/11 08:46:22;;;;;;;8.57;2.42;;;;;;;9.94;82.20;101309.47;4951899;28;20438;-75
2023/04/11 08:48:48;;;;;;;13.45;3.08;;;;;;;9.98;83.41;101311.13;4953659;28;20042;-75
2023/04/11 08:51:20;;;;;;;13.68;2.67;;;;;;;10.16;81.95;101294.38;4952487;28;20468;-75
2023/04/11 08:53:45;;;;;;;11.35;2.45;;;;;;;10.11;80.39;101300.56;4954959;28;20423;-75
2023/04/11 08:56:17;;;;;;;11.52;3.30;;;;;;;10.12;83.39;101307.47;4954690;28;20114;-75
2023/04/11 08:58:43;;;;;;;11.98;3.40;;;;;;;10.21;81.69;101305.59;4955587;28;20058;-75
2023/04/11 09:01:24;;;;;;;9.52;2.35;;;;;;;10.11;78.97;101306.63;4953639;28;20043;-75
2023/04/11 09:03:50;;;;;;;10.13;2.65;;;;;;;9.95;83.82;101305.97;4956244;28;20416;-75
2023/04/11 09:06:16;;;;;;;14.18;2.47;;;;;;;9.97;84.49;101304.22;4973887;28;20023;-75
2023/04/11 09:08:42;;;;;;;14.43;3.10;;;;;;;10.20;84.06;101297.78;4974120;28;20023;-75
2023/04/11 09:11:07;;;;;;;10.90;2.83;;;;;;;10.19;81.28;101283.91;4973803;28;20030;-75
2023/04/11 09:13:32;;;;;;;7.82;2.60;;;;;;;10.38;86.60;101287.16;4974308;28;20019;-75
2023/04/11 09:16:08;;;;;;;11.50;2.20;;;;;;;10.81;77.04;101299.47;4971905;28;20542;-75
2023/04/11 09:18:38;;;;;;;11.98;2.30;;;;;;;10.72;74.73;101304.84;4971394;28;20058;-75
2023/04/11 09:21:09;;;;;;;8.85;2.10;;;;;;;10.57;73.01;101323.38;4973951;28;20069;-75
2023/04/11 09:23:34;;;;;;;9.65;2.20;;;;;;;10.33;76.69;101315.00;4972405;28;20510;-74
2023/04/11 09:26:00;;;;;;;12.45;2.35;;;;;;;10.12;75.57;101307.47;4974211;28;20027;-75
2023/04/11 09:28:37;;;;;;;12.38;2.47;;;;;;;10.14;75.14;101309.19;4971615;28;20039;-79
2023/04/11 09:31:02;;;;;;;9.73;2.20;;;;;;;10.15;74.48;101312.66;4964218;28;20493;-79
2023/04/11 09:33:30;;;;;;;10.98;1.70;;;;;;;10.09;75.64;101319.66;4971921;28;20545;-76
2023/04/11 09:35:56;;;;;;;7.10;2.08;;;;;;;10.21;73.42;101321.25;4972168;28;20037;-75
2023/04/11 09:38:32;;;;;;;10.32;2.42;;;;;;;10.27;75.67;101325.53;4973595;28;20402;-74
2023/04/11 09:40:58;;;;;;;7.75;2.10;;;;;;;10.24;72.03;101330.78;4972423;28;20034;-75
2023/04/11 09:43:24;;;;;;;10.35;2.28;;;;;;;10.25;70.44;101322.91;4972538;28;20026;-74
2023/04/11 09:46:10;;;;;;;7.95;1.80;;;;;;;10.14;68.10;101317.00;4971701;28;20450;-75
2023/04/11 09:48:37;;;;;;;9.35;2.30;;;;;;;10.48;71.17;101326.97;4970549;28;20031;-75
2023/04/11 09:51:06;;;;;;;8.95;1.58;;;;;;;10.84;63.45;101348.97;4972521;28;20038;-75
2023/04/11 09:53:34;;;;;;;8.77;1.70;;;;;;;11.10;59.31;101326.81;4970795;28;20022;-74
2023/04/11 09:55:59;;;;;;;8.25;1.70;;;;;;;11.39;57.65;101334.97;4973874;28;20030;-75
2023/04/11 09:58:26;;;;;;;9.23;2.50;;;;;;;11.57;59.39;101330.25;4971994;28;20375;-75
2023/04/11 10:00:53;;;;;;;10.80;1.85;;;;;;;11.67;58.71;101330.06;4973709;28;20039;-74
2023/04/11 10:03:21;;;;;;;7.93;1.60;;;;;;;11.69;56.83;101319.59;4973520;28;20431;-74
2023/04/11 10:05:47;;;;;;;5.25;1.48;;;;;;;11.64;53.90;101329.25;4971899;28;20049;-74
2023/04/11 10:08:16;;;;;;;6.65;1.70;;;;;;;11.70;53.88;101318.69;4973255;28;20023;-74
2023/04/11 10:10:42;;;;;;;5.18;1.50;;;;;;;11.68;51.93;101325.69;4973344;28;20471;-74
2023/04/11 10:13:36;;;;;;;12.38;1.90;;;;;;;11.77;56.51;101320.28;4972587;28;20023;-75
2023/04/11 10:16:10;;;;;;;7.53;1.58;;;;;;;11.84;53.54;101306.25;4970419;28;20125;-74
2023/04/11 10:18:36;;;;;;;7.93;1.48;;;;;;;12.09;51.72;101329.22;4967976;28;20110;-74
2023/04/11 10:21:02;;;;;;;6.28;1.60;;;;;;;12.09;48.59;101311.78;4972955;28;20019;-76
2023/04/11 10:23:28;;;;;;;7.75;1.23;;;;;;;12.11;49.51;101319.59;4973393;28;20467;-75
2023/04/11 10:26:00;;;;;;;4.15;1.50;;;;;;;12.05;48.69;101312.75;4970557;28;20038;-74
2023/04/11 10:28:34;;;;;;;6.88;1.55;;;;;;;12.12;50.16;101316.09;4971421;28;20034;-75
2023/04/11 10:31:07;;;;;;;10.93;1.60;;;;;;;12.17;49.68;101304.63;4972202;28;20023;-74
2023/04/11 10:33:34;;;;;;;7.28;2.38;;;;;;;12.34;49.15;101313.84;4975982;28;20500;-73
2023/04/11 10:36:08;;;;;;;8.27;1.50;;;;;;;12.39;47.17;101325.94;4971953;28;20030;-74
2023/04/11 10:38:40;;;;;;;6.18;1.80;;;;;;;12.46;48.97;101321.41;4973251;28;20481;-74
2023/04/11 10:41:32;;;;;;;11.85;1.83;;;;;;;12.56;49.62;101311.59;4970123;28;20026;-74
2023/04/11 10:44:17;;;;;;;10.63;1.70;;;;;;;12.79;52.36;101303.19;4967995;28;20030;-75
2023/04/11 10:46:45;;;;;;;13.73;2.42;;;;;;;13.02;51.02;101310.44;4975770;28;20387;-75
2023/04/11 10:49:10;;;;;;;6.90;1.55;;;;;;;12.74;47.55;101287.56;4987057;28;20055;-74
2023/04/11 10:51:35;;;;;;;9.05;1.75;;;;;;;12.68;48.63;101332.19;4976836;28;20062;-74
2023/04/11 10:54:01;;;;;;;11.70;1.98;;;;;;;12.65;49.16;101313.97;4974788;28;20035;-75
2023/04/11 10:56:41;;;;;;;5.97;2.03;;;;;;;12.73;49.35;101329.47;4974683;28;20438;-75
2023/04/11 10:59:27;;;;;;;10.73;1.73;;;;;;;12.73;48.62;101325.09;4976703;28;20054;-74
2023/04/11 11:01:56;;;;;;;7.25;1.58;;;;;;;12.74;47.98;101313.72;4974333;28;20015;-74
2023/04/11 11:04:35;;;;;;;8.32;2.10;;;;;;;12.77;49.00;101316.28;4975224;28;20046;-75
2023/04/11 11:07:05;;;;;;;9.35;1.52;;;;;;;12.69;48.80;101310.41;4974951;28;20029;-74
2023/04/11 11:09:31;;;;;;;7.15;1.77;;;;;;;12.68;49.49;101323.50;4975167;28;20055;-74
2023/04/11 11:12:12;;;;;;;8.10;1.80;;;;;;;12.89;52.24;101321.22;4975719;28;20026;-74
2023/04/11 11:14:40;;;;;;;5.65;2.03;;;;;;;13.11;48.51;101320.63;4975834;28;20062;-73
2023/04/11 11:17:06;;;;;;;8.82;1.58;;;;;;;13.04;47.11;101319.94;4973287;28;20494;-74